Time;durP1;ratioP1;P1;durP2;ratioP2;P2;SDS_P1;SDS_P2;PMS_P1;PMS_P2;Temp;Humidity;BMP_temperature;BMP_pressure;BME280_temperature;BME280_humidity;BME280_pressure;Samples;Min_cycle;Max_cycle;Signal;HPM_P1;HPM_P2
2022/07/23 00:04:52;;;;;;;;;;;;;;;;;;10497570;28;20294;-65
2022/07/23 00:09:54;;;;;;;;;;;;;;;;;;10497962;28;19935;-65
2022/07/23 00:14:56;;;;;;;;;;;;;;;;;;10497002;28;20272;-65
2022/07/23 00:19:58;;;;;;;;;;;;;;;;;;10497741;28;19925;-65
2022/07/23 00:25:00;;;;;;;;;;;;;;;;;;10498927;28;19928;-65
2022/07/23 00:30:22;;;;;;;;;;;;;;;;;;10500406;28;19970;-65
2022/07/23 00:35:24;;;;;;;;;;;;;;;;;;10504453;28;19935;-65
2022/07/23 00:40:26;;;;;;;;;;;;;;;;;;10505285;28;19966;-65
2022/07/23 00:45:28;;;;;;;;;;;;;;;;;;10504172;28;20295;-65
2022/07/23 00:50:30;;;;;;;;;;;;;;;;;;10504829;28;19928;-65
2022/07/23 00:55:32;;;;;;;;;;;;;;;;;;10504563;28;19932;-65
2022/07/23 01:00:35;;;;;;;;;;;;;;;;;;10504283;28;19935;-65
2022/07/23 01:05:37;;;;;;;;;;;;;;;;;;10504450;28;19925;-65
2022/07/23 01:10:39;;;;;;;;;;;;;;;;;;10503160;28;20318;-65
2022/07/23 01:15:41;;;;;;;;;;;;;;;;;;10494750;28;19931;-65
2022/07/23 01:20:43;;;;;;;;;;;;;;;;;;10494446;28;19931;-65
2022/07/23 01:25:45;;;;;;;;;;;;;;;;;;10503855;28;19928;-65
2022/07/23 01:30:47;;;;;;;;;;;;;;;;;;10503336;28;19924;-65
2022/07/23 01:35:49;;;;;;;;;;;;;;;;;;10502759;28;19924;-65
2022/07/23 01:40:51;;;;;;;;;;;;;;;;;;10502591;28;19931;-65
2022/07/23 01:45:55;;;;;;;;;;;;;;;;;;10502417;28;19932;-65
2022/07/23 01:50:58;;;;;;;;;;;;;;;;;;10502205;28;19959;-65
2022/07/23 01:56:00;;;;;;;;;;;;;;;;;;10502208;28;19928;-65
2022/07/23 02:01:02;;;;;;;;;;;;;;;;;;10501684;28;19930;-65
2022/07/23 02:06:04;;;;;;;;;;;;;;;;;;10501817;28;19931;-65
2022/07/23 02:11:06;;;;;;;;;;;;;;;;;;10500853;28;20268;-65
2022/07/23 02:16:08;;;;;;;;;;;;;;;;;;10500601;28;19925;-65
2022/07/23 02:21:10;;;;;;;;;;;;;;;;;;10500925;28;19967;-65
2022/07/23 02:26:12;;;;;;;;;;;;;;;;;;10500992;28;19924;-65
2022/07/23 02:31:19;;;;;;;;;;;;;;;;;;10500812;28;20008;-65
2022/07/23 02:36:21;;;;;;;;;;;;;;;;;;10499825;28;19947;-65
2022/07/23 02:41:23;;;;;;;;;;;;;;;;;;10499421;28;20264;-65
2022/07/23 02:46:25;;;;;;;;;;;;;;;;;;10499975;28;19929;-65
2022/07/23 02:51:27;;;;;;;;;;;;;;;;;;10499718;28;19970;-65
2022/07/23 02:56:29;;;;;;;;;;;;;;;;;;10499698;28;19932;-65
2022/07/23 03:01:32;;;;;;;;;;;;;;;;;;10499073;28;19928;-65
2022/07/23 03:06:34;;;;;;;;;;;;;;;;;;10498947;28;20286;-65
2022/07/23 03:11:36;;;;;;;;;;;;;;;;;;10499262;28;19936;-65
2022/07/23 03:16:38;;;;;;;;;;;;;;;;;;10496848;28;19924;-64
2022/07/23 03:21:40;;;;;;;;;;;;;;;;;;10490803;28;20379;-64
2022/07/23 03:26:43;;;;;;;;;;;;;;;;;;10499053;28;19925;-65
2022/07/23 03:31:45;;;;;;;;;;;;;;;;;;10498734;28;19932;-64
2022/07/23 03:36:47;;;;;;;;;;;;;;;;;;10498006;28;19925;-64
2022/07/23 03:41:49;;;;;;;;;;;;;;;;;;10497964;28;19932;-64
2022/07/23 03:46:51;;;;;;;;;;;;;;;;;;10498644;28;19931;-64
2022/07/23 03:51:53;;;;;;;;;;;;;;;;;;10497925;28;20283;-65
2022/07/23 03:56:55;;;;;;;;;;;;;;;;;;10497647;28;19935;-64
2022/07/23 04:01:57;;;;;;;;;;;;;;;;;;10498235;28;19931;-64
2022/07/23 04:07:01;;;;;;;;;;;;;;;;;;10503760;28;19990;-64
2022/07/23 04:12:03;;;;;;;;;;;;;;;;;;10506190;28;19946;-64
2022/07/23 04:17:05;;;;;;;;;;;;;;;;;;10505416;28;20269;-65
2022/07/23 04:22:07;;;;;;;;;;;;;;;;;;10500160;28;19932;-65
2022/07/23 04:27:09;;;;;;;;;;;;;;;;;;10505350;28;19924;-64
2022/07/23 04:32:11;;;;;;;;;;;;;;;;;;10505518;28;19924;-64
2022/07/23 04:37:13;;;;;;;;;;;;;;;;;;10505057;28;19933;-64
2022/07/23 04:42:15;;;;;;;;;;;;;;;;;;10504454;28;19929;-65
2022/07/23 04:47:17;;;;;;;;;;;;;;;;;;10504257;28;20367;-65
2022/07/23 04:52:19;;;;;;;;;;;;;;;;;;10504651;28;19956;-65
2022/07/23 04:57:21;;;;;;;;;;;;;;;;;;10504484;28;19924;-65
2022/07/23 05:02:23;;;;;;;;;;;;;;;;;;10503767;28;19924;-65
2022/07/23 05:07:25;;;;;;;;;;;;;;;;;;10503331;28;20391;-64
2022/07/23 05:12:28;;;;;;;;;;;;;;;;;;10503393;28;20295;-65
2022/07/23 05:17:30;;;;;;;;;;;;;;;;;;10502266;28;19925;-65
2022/07/23 05:22:32;;;;;;;;;;;;;;;;;;10503825;28;19925;-65
2022/07/23 05:27:35;;;;;;;;;;;;;;;;;;10501428;28;20381;-65
2022/07/23 05:32:37;;;;;;;;;;;;;;;;;;10503034;28;19925;-65
2022/07/23 05:37:39;;;;;;;;;;;;;;;;;;10502060;28;19924;-65
2022/07/23 05:42:42;;;;;;;;;;;;;;;;;;10502863;28;19939;-65
2022/07/23 05:47:44;;;;;;;;;;;;;;;;;;10502629;28;19931;-64
2022/07/23 05:52:47;;;;;;;;;;;;;;;;;;10502181;28;19944;-65
2022/07/23 05:57:49;;;;;;;;;;;;;;;;;;10502224;28;19924;-64
2022/07/23 06:02:52;;;;;;;;;;;;;;;;;;10501987;28;19925;-64
2022/07/23 06:07:56;;;;;;;;;;;;;;;;;;10501631;28;20018;-65
2022/07/23 06:12:58;;;;;;;;;;;;;;;;;;10500811;28;20038;-64
2022/07/23 06:18:03;;;;;;;;;;;;;;;;;;10501039;28;19960;-65
2022/07/23 06:23:05;;;;;;;;;;;;;;;;;;10501037;28;20106;-65
2022/07/23 06:28:07;;;;;;;;;;;;;;;;;;10488449;28;19932;-65
2022/07/23 06:33:11;;;;;;;;;;;;;;;;;;10459408;28;19924;-65
2022/07/23 06:38:13;;;;;;;;;;;;;;;;;;10485849;28;20295;-65
2022/07/23 06:43:15;;;;;;;;;;;;;;;;;;10495794;28;19932;-65
2022/07/23 06:48:17;;;;;;;;;;;;;;;;;;10499233;28;19935;-65
2022/07/23 06:53:19;;;;;;;;;;;;;;;;;;10499366;28;20353;-65
2022/07/23 06:58:21;;;;;;;;;;;;;;;;;;10499810;28;19924;-65
2022/07/23 07:03:23;;;;;;;;;;;;;;;;;;10499304;28;19924;-65
2022/07/23 07:08:25;;;;;;;;;;;;;;;;;;10499466;28;19932;-65
2022/07/23 07:13:28;;;;;;;;;;;;;;;;;;10498577;28;19932;-65
2022/07/23 07:18:30;;;;;;;;;;;;;;;;;;10499002;28;19924;-64
2022/07/23 07:23:32;;;;;;;;;;;;;;;;;;10498400;28;19924;-65
2022/07/23 07:28:34;;;;;;;;;;;;;;;;;;10498377;28;19925;-65
2022/07/23 07:33:36;;;;;;;;;;;;;;;;;;10498510;28;19936;-65
2022/07/23 07:38:38;;;;;;;;;;;;;;;;;;10496631;28;19924;-65
2022/07/23 07:43:40;;;;;;;;;;;;;;;;;;10498414;28;19925;-65
2022/07/23 07:48:42;;;;;;;;;;;;;;;;;;10497262;28;19925;-65
2022/07/23 07:53:44;;;;;;;;;;;;;;;;;;10496883;28;19978;-65
2022/07/23 07:58:47;;;;;;;;;;;;;;;;;;10498208;28;19928;-65
2022/07/23 08:03:49;;;;;;;;;;;;;;;;;;10497054;28;19924;-65
2022/07/23 08:08:51;;;;;;;;;;;;;;;;;;10456615;28;19925;-66
2022/07/23 08:13:53;;;;;;;;;;;;;;;;;;10478367;28;19928;-66
2022/07/23 08:18:55;;;;;;;;;;;;;;;;;;10497098;28;20390;-66
2022/07/23 08:23:57;;;;;;;;;;;;;;;;;;10491092;28;19933;-66
2022/07/23 08:29:00;;;;;;;;;;;;;;;;;;10489744;28;19932;-66
2022/07/23 08:34:02;;;;;;;;;;;;;;;;;;10490324;28;19943;-66
2022/07/23 08:39:05;;;;;;;;;;;;;;;;;;10490596;28;19928;-66
2022/07/23 08:44:07;;;;;;;;;;;;;;;;;;10489612;28;20379;-66
2022/07/23 08:49:09;;;;;;;;;;;;;;;;;;10490223;28;19934;-66
2022/07/23 08:54:11;;;;;;;;;;;;;;;;;;10496851;28;20462;-66
2022/07/23 08:59:13;;;;;;;;;;;;;;;;;;10496903;28;20371;-67
2022/07/23 09:04:15;;;;;;;;;;;;;;;;;;10496707;28;19929;-67
2022/07/23 09:09:17;;;;;;;;;;;;;;;;;;10496222;28;20409;-67
2022/07/23 09:14:19;;;;;;;;;;;;;;;;;;10496485;28;19929;-67
2022/07/23 09:19:22;;;;;;;;;;;;;;;;;;10496036;28;19928;-67
2022/07/23 09:24:24;;;;;;;;;;;;;;;;;;10496646;28;19935;-66
2022/07/23 09:29:26;;;;;;;;;;;;;;;;;;10495705;28;19928;-67
2022/07/23 09:34:28;;;;;;;;;;;;;;;;;;10501586;28;19932;-66
2022/07/23 09:39:30;;;;;;;;;;;;;;;;;;10503100;28;19924;-66
2022/07/23 09:44:32;;;;;;;;;;;;;;;;;;10501874;28;20306;-66
2022/07/23 09:49:34;;;;;;;;;;;;;;;;;;10502094;28;19924;-67
2022/07/23 09:54:37;;;;;;;;;;;;;;;;;;10501366;28;19931;-66
2022/07/23 09:59:39;;;;;;;;;;;;;;;;;;10500129;28;19924;-66
2022/07/23 10:04:41;;;;;;;;;;;;;;;;;;10500542;28;19924;-66
2022/07/23 10:09:43;;;;;;;;;;;;;;;;;;10501672;28;19939;-67
2022/07/23 10:14:45;;;;;;;;;;;;;;;;;;10501270;28;19924;-67
2022/07/23 10:19:48;;;;;;;;;;;;;;;;;;10500676;28;19936;-67
2022/07/23 10:24:50;;;;;;;;;;;;;;;;;;10501466;28;19931;-67
2022/07/23 10:29:52;;;;;;;;;;;;;;;;;;10501593;28;19924;-67
2022/07/23 10:34:54;;;;;;;;;;;;;;;;;;10500896;28;19925;-67
2022/07/23 10:39:56;;;;;;;;;;;;;;;;;;10493583;28;19931;-67
2022/07/23 10:44:58;;;;;;;;;;;;;;;;;;10499737;28;19931;-67
2022/07/23 10:50:00;;;;;;;;;;;;;;;;;;10499579;28;20291;-67
2022/07/23 10:55:02;;;;;;;;;;;;;;;;;;10499445;28;19931;-66
2022/07/23 11:00:14;;;;;;;;;;;;;;;;;;10499261;28;20287;-67
2022/07/23 11:05:16;;;;;;;;;;;;;;;;;;10499015;28;19947;-67
2022/07/23 11:10:18;;;;;;;;;;;;;;;;;;10498956;28;19925;-67
2022/07/23 11:15:20;;;;;;;;;;;;;;;;;;10498260;28;19939;-67
2022/07/23 11:20:22;;;;;;;;;;;;;;;;;;10499343;28;19924;-67
2022/07/23 11:25:24;;;;;;;;;;;;;;;;;;10499104;28;19924;-67
2022/07/23 11:30:26;;;;;;;;;;;;;;;;;;10513229;22;19925;-65
2022/07/23 11:35:31;;;;;;;;;;;;;;;;;;10498536;28;19930;-65
2022/07/23 11:40:33;;;;;;;;;;;;;;;;;;10498916;28;19924;-65
2022/07/23 11:45:35;;;;;;;;;;;;;;;;;;10498687;28;19924;-65
2022/07/23 11:50:37;;;;;;;;;;;;;;;;;;10480898;28;19931;-65
2022/07/23 11:55:39;;;;;;;;;;;;;;;;;;10498593;28;19932;-65
2022/07/23 12:00:41;;;;;;;;;;;;;;;;;;10497878;28;20386;-65
2022/07/23 12:05:43;;;;;;;;;;;;;;;;;;10498273;28;19957;-65
2022/07/23 12:10:45;;;;;;;;;;;;;;;;;;10498251;28;19924;-66
2022/07/23 12:15:47;;;;;;;;;;;;;;;;;;10497535;28;20382;-66
2022/07/23 12:20:50;;;;;;;;;;;;;;;;;;10498042;28;19925;-66
2022/07/23 12:25:52;;;;;;;;;;;;;;;;;;10500298;28;19928;-66
2022/07/23 12:30:54;;;;;;;;;;;;;;;;;;10509191;28;19924;-66
2022/07/23 12:35:56;;;;;;;;;;;;;;;;;;10547503;28;19924;-66
2022/07/23 12:40:59;;;;;;;;;;;;;;;;;;10547393;28;19931;-66
2022/07/23 12:46:01;;;;;;;;;;;;;;;;;;10547286;28;19928;-66
2022/07/23 12:51:03;;;;;;;;;;;;;;;;;;10546342;28;20393;-66
2022/07/23 12:56:05;;;;;;;;;;;;;;;;;;10546762;28;19924;-66
2022/07/23 13:01:16;;;;;;;;;;;;;;;;;;10545926;28;20394;-66
2022/07/23 13:06:18;;;;;;;;;;;;;;;;;;10545539;28;19928;-65
2022/07/23 13:11:22;;;;;;;;;;;;;;;;;;10545986;28;20006;-65
2022/07/23 13:16:24;;;;;;;;;;;;;;;;;;10545727;28;19924;-66
2022/07/23 13:21:26;;;;;;;;;;;;;;;;;;10545727;28;19924;-66
2022/07/23 13:26:28;;;;;;;;;;;;;;;;;;10527655;28;19940;-66
2022/07/23 13:31:30;;;;;;;;;;;;;;;;;;10544675;28;19930;-66
2022/07/23 13:36:32;;;;;;;;;;;;;;;;;;10544710;28;19924;-66
2022/07/23 13:41:34;;;;;;;;;;;;;;;;;;10544820;28;19931;-66
2022/07/23 13:46:37;;;;;;;;;;;;;;;;;;10544205;28;20345;-66
2022/07/23 13:51:39;;;;;;;;;;;;;;;;;;10543925;28;20359;-66
2022/07/23 13:56:41;;;;;;;;;;;;;;;;;;10544379;28;19932;-66
2022/07/23 14:01:43;;;;;;;;;;;;;;;;;;10544080;28;19932;-64
2022/07/23 14:07:05;;;;;;;;;;;;;;;;;;10543251;28;20321;-64
2022/07/23 14:12:07;;;;;;;;;;;;;;;;;;10542886;28;20390;-64
2022/07/23 14:17:10;;;;;;;;;;;;;;;;;;10542960;28;20309;-64
2022/07/23 14:22:12;;;;;;;;;;;;;;;;;;10543104;28;19971;-63
2022/07/23 14:27:14;;;;;;;;;;;;;;;;;;10542459;28;20264;-64
2022/07/23 14:32:16;;;;;;;;;;;;;;;;;;10542201;28;19932;-64
2022/07/23 14:37:18;;;;;;;;;;;;;;;;;;10542636;28;19930;-66
2022/07/23 14:42:20;;;;;;;;;;;;;;;;;;10542488;28;19931;-66
2022/07/23 14:47:22;;;;;;;;;;;;;;;;;;10541965;28;20286;-66
2022/07/23 14:52:25;;;;;;;;;;;;;;;;;;10541847;28;19931;-66
2022/07/23 14:57:27;;;;;;;;;;;;;;;;;;10541978;28;19931;-66
2022/07/23 15:02:29;;;;;;;;;;;;;;;;;;10541938;28;19924;-66
2022/07/23 15:07:31;;;;;;;;;;;;;;;;;;10541454;28;19924;-66
2022/07/23 15:12:33;;;;;;;;;;;;;;;;;;10541460;28;19924;-66
2022/07/23 15:17:35;;;;;;;;;;;;;;;;;;10540556;28;19950;-66
2022/07/23 15:22:37;;;;;;;;;;;;;;;;;;10540316;28;19946;-66
2022/07/23 15:27:39;;;;;;;;;;;;;;;;;;10540903;28;19931;-66
2022/07/23 15:32:41;;;;;;;;;;;;;;;;;;10540173;28;20397;-66
2022/07/23 15:37:43;;;;;;;;;;;;;;;;;;10522827;28;19931;-66
2022/07/23 15:42:46;;;;;;;;;;;;;;;;;;10539905;28;19954;-66
2022/07/23 15:47:48;;;;;;;;;;;;;;;;;;10540512;28;19931;-66
2022/07/23 15:52:50;;;;;;;;;;;;;;;;;;10540408;28;19924;-66
2022/07/23 15:57:52;;;;;;;;;;;;;;;;;;10540348;28;19931;-66
2022/07/23 16:02:55;;;;;;;;;;;;;;;;;;10546722;28;20329;-66
2022/07/23 16:07:57;;;;;;;;;;;;;;;;;;10548657;28;19924;-66
2022/07/23 16:12:59;;;;;;;;;;;;;;;;;;10548455;28;19928;-66
2022/07/23 16:18:01;;;;;;;;;;;;;;;;;;10548166;28;19924;-66
2022/07/23 16:23:03;;;;;;;;;;;;;;;;;;10547918;28;19931;-66
2022/07/23 16:28:05;;;;;;;;;;;;;;;;;;10547511;28;19924;-66
2022/07/23 16:33:07;;;;;;;;;;;;;;;;;;10547699;28;19931;-66
2022/07/23 16:38:10;;;;;;;;;;;;;;;;;;10547454;28;19924;-66
2022/07/23 16:43:12;;;;;;;;;;;;;;;;;;10547298;28;19928;-66
2022/07/23 16:48:14;;;;;;;;;;;;;;;;;;10546488;28;19930;-66
2022/07/23 16:53:16;;;;;;;;;;;;;;;;;;10546941;28;19931;-66
2022/07/23 16:58:18;;;;;;;;;;;;;;;;;;10546729;28;19924;-66
2022/07/23 17:03:23;;;;;;;;;;;;;;;;;;10545887;28;19924;-66
2022/07/23 17:08:25;;;;;;;;;;;;;;;;;;10546340;28;19951;-66
2022/07/23 17:13:28;;;;;;;;;;;;;;;;;;10545175;28;19925;-63
2022/07/23 17:18:30;;;;;;;;;;;;;;;;;;10545975;28;19924;-63
2022/07/23 17:23:33;;;;;;;;;;;;;;;;;;10545607;28;19931;-63
2022/07/23 17:28:35;;;;;;;;;;;;;;;;;;10545213;28;19924;-63
2022/07/23 17:33:37;;;;;;;;;;;;;;;;;;10545317;28;19924;-63
2022/07/23 17:38:39;;;;;;;;;;;;;;;;;;10545184;28;19924;-63
2022/07/23 17:43:41;;;;;;;;;;;;;;;;;;10544186;28;19924;-63
2022/07/23 17:48:43;;;;;;;;;;;;;;;;;;10544115;28;19924;-63
2022/07/23 17:53:45;;;;;;;;;;;;;;;;;;10544476;28;19963;-63
2022/07/23 17:58:48;;;;;;;;;;;;;;;;;;10544350;28;19924;-63
2022/07/23 18:03:50;;;;;;;;;;;;;;;;;;10543381;28;20375;-63
2022/07/23 18:08:52;;;;;;;;;;;;;;;;;;10543205;28;19928;-63
2022/07/23 18:13:57;;;;;;;;;;;;;;;;;;10543699;28;19931;-63
2022/07/23 18:18:59;;;;;;;;;;;;;;;;;;10542850;28;19954;-63
2022/07/23 18:24:01;;;;;;;;;;;;;;;;;;10542049;28;19924;-63
2022/07/23 18:29:03;;;;;;;;;;;;;;;;;;10543255;28;19931;-63
2022/07/23 18:34:06;;;;;;;;;;;;;;;;;;10543081;28;20007;-63
2022/07/23 18:39:10;;;;;;;;;;;;;;;;;;10542060;28;20311;-63
2022/07/23 18:44:14;;;;;;;;;;;;;;;;;;10541761;28;20420;-63
2022/07/23 18:49:16;;;;;;;;;;;;;;;;;;10542270;28;19924;-63
2022/07/23 18:54:18;;;;;;;;;;;;;;;;;;10541481;28;19977;-63
2022/07/23 18:59:20;;;;;;;;;;;;;;;;;;10542007;28;19931;-63
2022/07/23 19:04:25;;;;;;;;;;;;;;;;;;10541037;28;20007;-63
2022/07/23 19:09:27;;;;;;;;;;;;;;;;;;10524022;28;20114;-63
2022/07/23 19:14:31;;;;;;;;;;;;;;;;;;10540678;28;19946;-63
2022/07/23 19:19:33;;;;;;;;;;;;;;;;;;10540470;28;19928;-63
2022/07/23 19:24:36;;;;;;;;;;;;;;;;;;10541056;28;19924;-63
2022/07/23 19:29:38;;;;;;;;;;;;;;;;;;10540641;28;19924;-63
2022/07/23 19:34:40;;;;;;;;;;;;;;;;;;10539843;28;19924;-63
2022/07/23 19:39:43;;;;;;;;;;;;;;;;;;10540715;28;19928;-63
2022/07/23 19:44:45;;;;;;;;;;;;;;;;;;10539901;28;20382;-63
2022/07/23 19:49:47;;;;;;;;;;;;;;;;;;10522619;28;19924;-63
2022/07/23 19:54:49;;;;;;;;;;;;;;;;;;10540074;28;19928;-63
2022/07/23 19:59:51;;;;;;;;;;;;;;;;;;10539646;28;20283;-63
2022/07/23 20:04:53;;;;;;;;;;;;;;;;;;10540134;28;19928;-63
2022/07/23 20:09:55;;;;;;;;;;;;;;;;;;10540096;28;19931;-63
2022/07/23 20:14:57;;;;;;;;;;;;;;;;;;10540037;28;19924;-63
2022/07/23 20:19:59;;;;;;;;;;;;;;;;;;10539167;28;20397;-63
2022/07/23 20:25:01;;;;;;;;;;;;;;;;;;10539006;28;19924;-63
2022/07/23 20:30:03;;;;;;;;;;;;;;;;;;10539189;28;19935;-63
2022/07/23 20:35:06;;;;;;;;;;;;;;;;;;10521372;28;19935;-62
2022/07/23 20:40:08;;;;;;;;;;;;;;;;;;10538888;28;20375;-63
2022/07/23 20:45:10;;;;;;;;;;;;;;;;;;10538871;28;19924;-63
2022/07/23 20:50:12;;;;;;;;;;;;;;;;;;10545766;28;19928;-63
2022/07/23 20:55:16;;;;;;;;;;;;;;;;;;10546261;28;19950;-65
2022/07/23 21:00:18;;;;;;;;;;;;;;;;;;10546778;28;19938;-65
2022/07/23 21:05:20;;;;;;;;;;;;;;;;;;10545843;28;19946;-65
2022/07/23 21:10:22;;;;;;;;;;;;;;;;;;10545737;28;19931;-65
2022/07/23 21:15:24;;;;;;;;;;;;;;;;;;10545426;28;20375;-65
2022/07/23 21:21:07;;;;;;;;;;;;;;;;;;10545880;28;19930;-65
2022/07/23 21:25:50;;;;;;;;;;;;;;;;;;10544920;28;20272;-65
2022/07/23 21:31:02;;;;;;;;;;;;;;;;;;10545218;28;19967;-65
2022/07/23 21:36:04;;;;;;;;;;;;;;;;;;10545310;28;19924;-65
2022/07/23 21:41:06;;;;;;;;;;;;;;;;;;10544483;28;19924;-65
2022/07/23 21:46:09;;;;;;;;;;;;;;;;;;10544783;28;19932;-65
2022/07/23 21:51:11;;;;;;;;;;;;;;;;;;10544733;28;19924;-65
2022/07/23 21:56:13;;;;;;;;;;;;;;;;;;10544484;28;19932;-65
2022/07/23 22:01:15;;;;;;;;;;;;;;;;;;10544038;28;19924;-65
2022/07/23 22:06:17;;;;;;;;;;;;;;;;;;10544027;28;19964;-65
2022/07/23 22:11:19;;;;;;;;;;;;;;;;;;10543235;28;19924;-65
2022/07/23 22:16:21;;;;;;;;;;;;;;;;;;10543057;28;19924;-65
2022/07/23 22:21:23;;;;;;;;;;;;;;;;;;10542852;28;19928;-65
2022/07/23 22:26:44;;;;;;;;;;;;;;;;;;10543253;28;19973;-65
2022/07/23 22:31:47;;;;;;;;;;;;;;;;;;10542299;28;20386;-65
2022/07/23 22:36:49;;;;;;;;;;;;;;;;;;10542854;28;19924;-65
2022/07/23 22:41:51;;;;;;;;;;;;;;;;;;10542111;28;19924;-65
2022/07/23 22:46:53;;;;;;;;;;;;;;;;;;10541898;28;19928;-65
2022/07/23 22:51:55;;;;;;;;;;;;;;;;;;10541700;28;20287;-65
2022/07/23 22:56:57;;;;;;;;;;;;;;;;;;10541370;28;19931;-65
2022/07/23 23:01:59;;;;;;;;;;;;;;;;;;10523912;28;19935;-65
2022/07/23 23:07:01;;;;;;;;;;;;;;;;;;10541705;28;19931;-65
2022/07/23 23:12:03;;;;;;;;;;;;;;;;;;10540960;28;19928;-65
2022/07/23 23:17:05;;;;;;;;;;;;;;;;;;10541439;28;19924;-65
2022/07/23 23:22:07;;;;;;;;;;;;;;;;;;10541223;28;19924;-65
2022/07/23 23:27:10;;;;;;;;;;;;;;;;;;10541128;28;19924;-65
2022/07/23 23:32:12;;;;;;;;;;;;;;;;;;10540156;28;19931;-65
2022/07/23 23:37:14;;;;;;;;;;;;;;;;;;10540193;28;19935;-65
2022/07/23 23:42:16;;;;;;;;;;;;;;;;;;10540063;28;20394;-65
2022/07/23 23:47:18;;;;;;;;;;;;;;;;;;10553982;22;19924;-58
2022/07/23 23:52:20;;;;;;;;;;;;;;;;;;10540574;28;19932;-58
2022/07/23 23:57:22;;;;;;;;;;;;;;;;;;10539861;28;20038;-59
